Sorento, Illinois
Current Conditions -  °F | °C
As of 3:15 PM on Friday 24 Oct 2014 (Local Time) from K3LF Reporting Station
Clear Clear  
Wind Chill: 67°   Ceiling: Unl
Heat Index: 67°   Visibility: 10mi
Dew Point: 51°   Wind: 6mph
Humidity: 57%   Direction: 220°SW
Pressure: 30.04"   Gusts: NA
Location:  39°N, 89.57°W
Report Text: K3LF 242015Z AUTO 22005KT 10SM CLR 19/11 A3004 RMK AO2 T01940107
Loading
Personal Weather Stations






























Interactive Weather Map
Tropical Storm Tracking
New forecast layout! Learn more

10-Day Weather Forecast

Advertisements
Track Severe Weather on mobile